createdAt,value
2023-04-27T00:02:03.043Z,4.13
2023-04-27T00:04:29.937Z,3.80
2023-04-27T00:06:57.271Z,4.30
2023-04-27T00:09:24.412Z,4.60
2023-04-27T00:11:51.096Z,3.83
2023-04-27T00:14:18.219Z,4.20
2023-04-27T00:16:45.394Z,4.57
2023-04-27T00:19:13.619Z,4.33
2023-04-27T00:21:40.637Z,4.40
2023-04-27T00:24:07.708Z,4.53
2023-04-27T00:26:34.792Z,4.10
2023-04-27T00:29:01.850Z,3.77
2023-04-27T00:31:29.056Z,3.97
2023-04-27T00:33:55.860Z,4.30
2023-04-27T00:36:22.952Z,3.90
2023-04-27T00:38:49.680Z,4.30
2023-04-27T00:41:16.744Z,4.03
2023-04-27T00:43:45.094Z,4.27
2023-04-27T00:46:16.805Z,4.60
2023-04-27T00:48:44.211Z,3.87
2023-04-27T00:51:11.057Z,3.90
2023-04-27T00:53:38.171Z,4.20
2023-04-27T00:56:05.939Z,4.10
2023-04-27T00:58:32.985Z,4.43
2023-04-27T01:01:00.863Z,4.30
2023-04-27T01:03:28.117Z,4.20
2023-04-27T01:05:56.675Z,4.20
2023-04-27T01:08:24.594Z,4.70
2023-04-27T01:10:51.752Z,4.53
2023-04-27T01:13:18.688Z,4.20
2023-04-27T01:15:45.908Z,4.73
2023-04-27T01:18:12.694Z,4.40
2023-04-27T01:20:39.830Z,4.83
2023-04-27T01:23:06.972Z,4.70
2023-04-27T01:25:49.133Z,4.50
2023-04-27T01:28:15.784Z,4.67
2023-04-27T01:30:42.460Z,5.00
2023-04-27T01:33:09.558Z,4.50
2023-04-27T01:35:37.065Z,5.17
2023-04-27T01:38:04.137Z,5.17
2023-04-27T01:40:30.855Z,4.47
2023-04-27T01:42:57.906Z,4.80
2023-04-27T01:45:24.993Z,5.60
2023-04-27T01:47:52.653Z,5.13
2023-04-27T01:50:20.195Z,5.23
2023-04-27T01:52:46.934Z,7.00
2023-04-27T01:57:58.470Z,5.40
2023-04-27T02:05:53.763Z,5.47
2023-04-27T02:11:05.338Z,5.60
2023-04-27T02:13:32.387Z,5.03
2023-04-27T02:16:02.008Z,5.17
2023-04-27T02:18:29.243Z,5.03
2023-04-27T02:20:56.306Z,5.17
2023-04-27T02:23:23.400Z,5.80
2023-04-27T02:25:50.511Z,5.93
2023-04-27T02:39:39.775Z,5.70
2023-04-27T02:46:43.610Z,5.60
2023-04-27T02:50:06.787Z,5.27
2023-04-27T02:53:29.674Z,5.40
2023-04-27T02:56:52.673Z,5.90
2023-04-27T03:18:40.597Z,5.50
2023-04-27T03:21:25.178Z,5.30
2023-04-27T03:23:51.865Z,5.67
2023-04-27T03:26:18.908Z,6.17
2023-04-27T03:28:46.113Z,5.53
2023-04-27T03:31:14.582Z,5.47
2023-04-27T03:33:41.559Z,5.87
2023-04-27T03:36:10.464Z,5.60
2023-04-27T03:38:37.289Z,6.13
2023-04-27T03:41:04.486Z,5.93
2023-04-27T03:43:31.602Z,6.07
2023-04-27T03:45:58.775Z,5.93
2023-04-27T03:48:25.667Z,6.07
2023-04-27T03:50:52.803Z,6.70
2023-04-27T03:53:19.866Z,5.93
2023-04-27T03:55:47.763Z,6.23
2023-04-27T03:58:14.497Z,6.77
2023-04-27T04:00:41.615Z,6.47
2023-04-27T04:03:09.053Z,6.27
2023-04-27T04:05:36.088Z,6.53
2023-04-27T04:08:03.480Z,6.87
2023-04-27T04:10:30.610Z,6.63
2023-04-27T04:12:57.718Z,6.37
2023-04-27T04:15:24.397Z,7.27
2023-04-27T04:17:51.828Z,6.37
2023-04-27T04:20:18.560Z,6.53
2023-04-27T04:22:45.889Z,6.60
2023-04-27T04:25:13.055Z,6.90
2023-04-27T04:27:40.805Z,7.40
2023-04-27T04:30:08.356Z,6.60
2023-04-27T04:32:40.372Z,6.53
2023-04-27T04:35:07.276Z,6.73
2023-04-27T04:37:35.458Z,7.60
2023-04-27T04:40:11.250Z,6.90
2023-04-27T04:42:38.239Z,7.27
2023-04-27T04:45:06.137Z,7.00
2023-04-27T04:47:34.210Z,7.03
2023-04-27T04:50:01.548Z,6.90
2023-04-27T04:52:28.284Z,7.53
2023-04-27T04:54:54.995Z,7.20
2023-04-27T04:57:22.193Z,7.00
2023-04-27T04:59:48.895Z,7.00
2023-04-27T05:02:16.069Z,6.30
2023-04-27T05:04:43.374Z,6.53
2023-04-27T05:07:14.075Z,6.70
2023-04-27T05:09:41.546Z,6.73
2023-04-27T05:12:08.257Z,7.07
2023-04-27T05:14:35.270Z,6.83
2023-04-27T05:17:02.393Z,6.73
2023-04-27T05:19:30.100Z,7.57
2023-04-27T05:21:58.211Z,6.90
2023-04-27T05:24:26.239Z,6.53
2023-04-27T05:26:53.576Z,7.10
2023-04-27T05:29:20.544Z,7.23
2023-04-27T05:31:47.650Z,6.53
2023-04-27T05:34:14.494Z,7.37
2023-04-27T05:36:41.587Z,7.00
2023-04-27T05:39:08.304Z,7.00
2023-04-27T05:41:35.463Z,7.37
2023-04-27T05:44:02.131Z,7.27
2023-04-27T05:46:28.962Z,7.43
2023-04-27T05:48:55.920Z,7.17
2023-04-27T05:51:23.008Z,7.53
2023-04-27T05:53:50.098Z,8.03
2023-04-27T05:56:16.799Z,8.47
2023-04-27T05:58:43.484Z,8.00
2023-04-27T06:01:10.597Z,7.67
2023-04-27T06:03:37.935Z,8.27
2023-04-27T06:06:04.862Z,7.77
2023-04-27T06:08:32.018Z,8.43
2023-04-27T06:10:58.791Z,7.43
2023-04-27T06:13:25.511Z,7.80
2023-04-27T06:15:52.308Z,7.07
2023-04-27T06:18:19.090Z,7.00
2023-04-27T06:20:46.949Z,7.30
2023-04-27T06:23:14.054Z,7.13
2023-04-27T06:25:41.308Z,7.40
2023-04-27T06:28:08.457Z,7.03
2023-04-27T06:30:36.992Z,7.83
2023-04-27T06:33:04.301Z,8.30
2023-04-27T06:35:31.615Z,8.03
2023-04-27T06:37:59.018Z,7.77
2023-04-27T06:40:26.562Z,7.63
2023-04-27T06:42:53.892Z,8.30
2023-04-27T06:45:20.978Z,7.47
2023-04-27T06:47:47.697Z,8.27
2023-04-27T06:50:15.845Z,7.40
2023-04-27T06:52:42.997Z,8.37
2023-04-27T06:55:10.147Z,7.63
2023-04-27T06:57:37.225Z,7.63
2023-04-27T07:00:05.108Z,7.80
2023-04-27T07:02:32.271Z,7.90
2023-04-27T07:04:59.520Z,7.70
2023-04-27T07:07:26.785Z,7.63
2023-04-27T07:09:53.559Z,8.00
2023-04-27T07:12:20.376Z,7.10
2023-04-27T07:14:47.649Z,8.03
2023-04-27T07:17:14.705Z,8.10
2023-04-27T07:19:41.789Z,7.93
2023-04-27T07:22:08.496Z,7.97
2023-04-27T07:24:35.608Z,8.17
2023-04-27T07:27:03.682Z,7.63
2023-04-27T07:29:30.924Z,8.00
2023-04-27T07:31:58.433Z,8.07
2023-04-27T07:34:25.154Z,8.20
2023-04-27T07:36:54.474Z,7.80
2023-04-27T07:39:21.361Z,8.17
2023-04-27T07:41:49.833Z,7.77
2023-04-27T07:44:18.654Z,7.97
2023-04-27T07:46:48.804Z,7.90
2023-04-27T07:49:16.430Z,8.00
2023-04-27T07:51:43.517Z,7.93
2023-04-27T07:54:10.376Z,8.30
2023-04-27T07:56:37.112Z,8.33
2023-04-27T07:59:04.298Z,8.10
2023-04-27T08:01:31.453Z,8.30
2023-04-27T08:03:58.755Z,8.90
2023-04-27T08:06:28.845Z,8.17
2023-04-27T08:08:58.367Z,7.83
2023-04-27T08:11:25.092Z,8.20
2023-04-27T08:13:52.167Z,8.13
2023-04-27T08:16:18.869Z,8.07
2023-04-27T08:18:46.157Z,8.10
2023-04-27T08:21:12.817Z,8.17
2023-04-27T08:23:39.547Z,7.50
2023-04-27T08:26:06.614Z,7.70
2023-04-27T08:28:33.390Z,7.33
2023-04-27T08:31:00.549Z,7.07
2023-04-27T08:33:27.682Z,7.50
2023-04-27T08:35:55.439Z,7.43
2023-04-27T08:38:24.299Z,7.43
2023-04-27T08:40:52.306Z,7.20
2023-04-27T08:43:19.375Z,6.70
2023-04-27T08:45:50.347Z,7.10
2023-04-27T08:48:17.581Z,6.87
2023-04-27T08:50:45.034Z,7.60
2023-04-27T08:53:18.883Z,7.20
2023-04-27T08:55:46.009Z,7.10
2023-04-27T08:58:13.053Z,8.10
2023-04-27T09:00:41.716Z,8.00
2023-04-27T09:03:21.999Z,6.97
2023-04-27T09:06:00.663Z,8.00
2023-04-27T09:08:50.547Z,7.43
2023-04-27T09:11:31.398Z,7.57
2023-04-27T09:13:59.700Z,7.20
2023-04-27T09:16:29.168Z,7.17
2023-04-27T09:18:57.492Z,8.17
2023-04-27T09:21:29.109Z,8.03
2023-04-27T09:23:56.670Z,6.77
2023-04-27T09:26:25.752Z,7.40
2023-04-27T09:28:56.929Z,7.20
2023-04-27T09:31:34.919Z,7.60
2023-04-27T09:34:02.381Z,7.07
2023-04-27T09:36:30.773Z,8.13
2023-04-27T09:38:58.915Z,7.40
2023-04-27T09:41:26.071Z,7.90
2023-04-27T09:43:57.590Z,7.13
2023-04-27T09:46:25.918Z,7.70
2023-04-27T09:48:53.127Z,7.57
2023-04-27T09:51:19.805Z,8.00
2023-04-27T09:53:46.921Z,8.40
2023-04-27T09:56:14.022Z,8.13
2023-04-27T09:59:26.742Z,7.70
2023-04-27T10:02:02.794Z,7.57
2023-04-27T10:04:56.426Z,7.20
2023-04-27T10:07:23.740Z,7.90
2023-04-27T10:09:54.214Z,7.83
2023-04-27T10:12:28.804Z,8.00
2023-04-27T10:14:57.390Z,7.27
2023-04-27T10:17:32.383Z,8.50
2023-04-27T10:20:00.905Z,7.53
2023-04-27T10:22:44.879Z,7.87
2023-04-27T10:25:22.125Z,7.57
2023-04-27T10:27:58.669Z,7.33
2023-04-27T10:30:37.802Z,7.27
2023-04-27T10:33:10.674Z,7.83
2023-04-27T10:35:37.775Z,7.40
2023-04-27T10:38:18.825Z,7.27
2023-04-27T10:40:53.784Z,7.67
2023-04-27T10:43:26.703Z,7.37
2023-04-27T10:45:53.918Z,7.37
2023-04-27T10:48:21.239Z,7.60
2023-04-27T10:50:48.652Z,7.47
2023-04-27T10:53:16.814Z,7.67
2023-04-27T10:55:44.012Z,7.30
2023-04-27T10:58:11.248Z,7.77
2023-04-27T11:00:44.178Z,7.07
2023-04-27T11:03:12.468Z,7.20
2023-04-27T11:05:39.755Z,8.47
2023-04-27T11:08:07.102Z,6.90
2023-04-27T11:10:35.793Z,6.63
2023-04-27T11:13:10.134Z,7.37
2023-04-27T11:16:00.355Z,7.33
2023-04-27T11:18:31.518Z,6.80
2023-04-27T11:21:12.870Z,7.43
2023-04-27T11:23:39.995Z,6.87
2023-04-27T11:26:16.144Z,6.83
2023-04-27T11:28:44.676Z,7.83
2023-04-27T11:31:11.863Z,6.07
2023-04-27T11:33:40.169Z,6.27
2023-04-27T11:36:19.680Z,6.17
2023-04-27T11:38:46.896Z,7.80
2023-04-27T11:41:14.034Z,6.47
2023-04-27T11:43:49.323Z,6.70
2023-04-27T11:46:16.948Z,6.80
2023-04-27T11:48:44.072Z,6.27
2023-04-27T11:51:12.466Z,6.60
2023-04-27T11:53:40.020Z,7.33
2023-04-27T11:56:10.454Z,6.57
2023-04-27T11:58:38.805Z,6.40
2023-04-27T12:01:06.715Z,6.97
2023-04-27T12:03:34.796Z,7.07
2023-04-27T12:08:32.160Z,6.73
2023-04-27T12:10:59.351Z,6.90
2023-04-27T12:13:27.215Z,6.90
2023-04-27T12:15:53.941Z,7.00
2023-04-27T12:18:20.766Z,6.63
2023-04-27T12:20:47.867Z,6.13
2023-04-27T12:23:14.597Z,7.07
2023-04-27T12:25:43.749Z,6.73
2023-04-27T12:28:12.079Z,6.43
2023-04-27T12:30:38.802Z,6.37
2023-04-27T12:33:10.866Z,6.03
2023-04-27T12:35:37.923Z,6.30
2023-04-27T12:38:05.008Z,6.30
2023-04-27T12:40:33.153Z,6.13
2023-04-27T12:43:01.151Z,6.37
2023-04-27T12:45:28.251Z,6.70
2023-04-27T12:48:03.267Z,6.70
2023-04-27T12:50:32.000Z,6.50
2023-04-27T12:52:59.677Z,6.33
2023-04-27T12:55:33.753Z,6.83
2023-04-27T12:58:01.905Z,6.77
2023-04-27T13:00:29.782Z,5.60
2023-04-27T13:02:57.376Z,6.30
2023-04-27T13:05:24.334Z,6.20
2023-04-27T13:07:51.507Z,6.37
2023-04-27T13:10:18.229Z,7.37
2023-04-27T13:12:45.355Z,6.30
2023-04-27T13:15:12.396Z,6.97
2023-04-27T13:17:40.998Z,6.80
2023-04-27T13:20:09.755Z,6.60
2023-04-27T13:22:36.849Z,6.93
2023-04-27T13:25:05.972Z,6.30
2023-04-27T13:27:33.085Z,7.07
2023-04-27T13:29:59.882Z,5.97
2023-04-27T13:32:27.349Z,6.13
2023-04-27T13:34:54.086Z,6.57
2023-04-27T13:37:21.199Z,6.33
2023-04-27T13:39:48.289Z,6.03
2023-04-27T13:42:15.427Z,6.80
2023-04-27T13:44:43.374Z,6.60
2023-04-27T13:47:11.112Z,6.63
2023-04-27T13:49:38.090Z,6.90
2023-04-27T13:52:04.755Z,5.93
2023-04-27T13:54:31.962Z,6.40
2023-04-27T13:56:58.855Z,6.43
2023-04-27T13:59:25.715Z,6.43
2023-04-27T14:01:53.848Z,5.80
2023-04-27T14:04:21.098Z,5.73
2023-04-27T14:06:48.839Z,5.67
2023-04-27T14:09:16.598Z,5.83
2023-04-27T14:11:55.003Z,5.93
2023-04-27T14:14:24.138Z,5.70
2023-04-27T14:16:51.578Z,5.97
2023-04-27T14:19:20.456Z,5.80
2023-04-27T14:21:48.270Z,6.37
2023-04-27T14:24:15.359Z,5.50
2023-04-27T14:26:47.355Z,5.30
2023-04-27T14:29:14.900Z,5.20
2023-04-27T14:31:42.165Z,4.60
2023-04-27T14:34:09.588Z,5.57
2023-04-27T14:36:36.591Z,5.77
2023-04-27T14:39:04.559Z,5.20
2023-04-27T14:41:31.447Z,4.53
2023-04-27T14:43:58.331Z,5.07
2023-04-27T14:46:25.440Z,4.90
2023-04-27T14:48:52.567Z,5.10
2023-04-27T14:51:19.845Z,4.30
2023-04-27T14:53:46.910Z,4.73
2023-04-27T14:56:13.721Z,4.43
2023-04-27T14:58:41.417Z,4.50
2023-04-27T15:01:08.643Z,3.97
2023-04-27T15:03:36.073Z,4.27
2023-04-27T15:06:03.151Z,4.43
2023-04-27T15:08:32.740Z,4.10
2023-04-27T15:11:00.807Z,3.80
2023-04-27T15:13:28.230Z,3.77
2023-04-27T15:15:56.150Z,3.70
2023-04-27T15:18:23.556Z,3.90
2023-04-27T15:20:54.777Z,3.90
2023-04-27T15:23:22.604Z,3.60
2023-04-27T15:25:50.233Z,3.70
2023-04-27T15:28:18.141Z,3.42
2023-04-27T15:30:45.663Z,3.75
2023-04-27T15:33:13.736Z,3.83
2023-04-27T15:35:41.132Z,3.80
2023-04-27T15:38:10.062Z,3.53
2023-04-27T15:40:37.223Z,3.40
2023-04-27T15:43:04.839Z,3.67
2023-04-27T15:45:31.808Z,4.00
2023-04-27T15:47:58.891Z,3.57
2023-04-27T15:50:25.992Z,3.23
2023-04-27T15:52:53.803Z,3.90
2023-04-27T15:55:21.033Z,3.60
2023-04-27T15:57:48.165Z,3.67
2023-04-27T16:00:16.670Z,3.90
2023-04-27T16:02:43.995Z,3.28
2023-04-27T16:05:11.120Z,3.57
2023-04-27T16:07:40.072Z,4.07
2023-04-27T16:10:07.844Z,3.60
2023-04-27T16:12:35.482Z,3.92
2023-04-27T16:15:02.219Z,3.70
2023-04-27T16:17:35.933Z,3.50
2023-04-27T16:20:06.398Z,3.57
2023-04-27T16:22:34.209Z,3.97
2023-04-27T16:25:01.346Z,4.17
2023-04-27T16:27:28.619Z,3.77
2023-04-27T16:29:56.094Z,4.03
2023-04-27T16:32:23.086Z,3.80
2023-04-27T16:34:50.677Z,4.60
2023-04-27T16:37:17.792Z,4.15
2023-04-27T16:39:44.878Z,4.33
2023-04-27T16:42:16.227Z,4.10
2023-04-27T16:44:43.332Z,4.40
2023-04-27T16:47:10.447Z,4.43
2023-04-27T16:49:37.814Z,4.27
2023-04-27T16:52:05.138Z,3.87
2023-04-27T16:54:32.302Z,4.07
2023-04-27T16:56:59.549Z,4.53
2023-04-27T16:59:26.403Z,4.00
2023-04-27T17:01:53.591Z,4.97
2023-04-27T17:04:20.797Z,4.77
2023-04-27T17:06:48.412Z,4.50
2023-04-27T17:09:15.770Z,4.57
2023-04-27T17:11:43.077Z,4.10
2023-04-27T17:14:10.168Z,3.70
2023-04-27T17:16:36.849Z,4.17
2023-04-27T17:19:03.879Z,4.00
2023-04-27T17:21:31.931Z,4.27
2023-04-27T17:23:59.086Z,4.00
2023-04-27T17:26:26.253Z,4.10
2023-04-27T17:28:54.969Z,3.87
2023-04-27T17:31:21.662Z,3.97
2023-04-27T17:33:49.338Z,3.77
2023-04-27T17:36:16.028Z,3.63
2023-04-27T17:38:42.701Z,3.90
2023-04-27T17:41:09.886Z,3.50
2023-04-27T17:43:37.588Z,3.50
2023-04-27T17:46:09.696Z,3.40
2023-04-27T17:48:37.303Z,3.47
2023-04-27T17:51:04.413Z,3.77
2023-04-27T17:53:31.219Z,3.63
2023-04-27T17:55:58.306Z,3.50
2023-04-27T17:58:25.000Z,3.37
2023-04-27T18:00:51.928Z,3.30
2023-04-27T18:03:19.230Z,3.10
2023-04-27T18:05:46.498Z,3.17
2023-04-27T18:08:13.652Z,3.70
2023-04-27T18:10:41.260Z,3.00
2023-04-27T18:13:07.965Z,3.70
2023-04-27T18:15:35.069Z,3.50
2023-04-27T18:18:01.786Z,3.50
2023-04-27T18:20:28.557Z,3.00
2023-04-27T18:22:55.683Z,3.07
2023-04-27T18:25:22.762Z,3.10
2023-04-27T18:27:55.217Z,3.57
2023-04-27T18:30:22.902Z,3.30
2023-04-27T18:32:50.033Z,2.97
2023-04-27T18:35:16.782Z,3.43
2023-04-27T18:37:48.101Z,3.20
2023-04-27T18:40:19.465Z,3.77
2023-04-27T18:42:46.592Z,3.20
2023-04-27T18:45:13.304Z,3.00
2023-04-27T18:47:40.463Z,2.80
2023-04-27T18:50:07.911Z,3.00
2023-04-27T18:52:34.722Z,3.40
2023-04-27T18:55:01.923Z,2.90
2023-04-27T18:57:29.088Z,3.93
2023-04-27T18:59:56.237Z,3.40
2023-04-27T19:02:25.716Z,3.63
2023-04-27T19:05:07.013Z,4.17
2023-04-27T19:07:39.172Z,4.43
2023-04-27T19:10:07.749Z,4.57
2023-04-27T19:12:34.857Z,4.47
2023-04-27T19:15:02.118Z,4.30
2023-04-27T19:17:29.428Z,4.70
2023-04-27T19:19:56.520Z,4.40
2023-04-27T19:22:23.679Z,4.10
2023-04-27T19:24:50.372Z,4.03
2023-04-27T19:27:17.540Z,4.60
2023-04-27T19:29:57.282Z,4.10
2023-04-27T19:32:28.291Z,4.90
2023-04-27T19:34:56.500Z,4.70
2023-04-27T19:37:24.357Z,4.63
2023-04-27T19:39:51.685Z,4.37
2023-04-27T19:42:18.765Z,4.80
2023-04-27T19:44:45.935Z,5.23
2023-04-27T19:47:13.034Z,4.33
2023-04-27T19:49:39.752Z,4.70
2023-04-27T19:52:07.459Z,4.73
2023-04-27T19:54:37.972Z,4.80
2023-04-27T19:57:05.115Z,4.20
2023-04-27T19:59:31.828Z,6.00
2023-04-27T20:01:59.085Z,5.03
2023-04-27T20:05:22.461Z,4.60
2023-04-27T20:16:08.087Z,4.20
2023-04-27T20:26:53.462Z,4.80
2023-04-27T20:30:16.453Z,4.60
2023-04-27T20:33:39.774Z,5.00
2023-04-27T20:37:02.863Z,4.03
2023-04-27T20:40:25.864Z,4.50
2023-04-27T20:43:49.013Z,4.40
2023-04-27T20:47:11.782Z,4.13
2023-04-27T20:57:56.863Z,4.17
2023-04-27T21:05:00.362Z,4.03
2023-04-27T21:08:23.564Z,3.60
2023-04-27T21:11:46.581Z,3.87
2023-04-27T21:18:50.072Z,3.60
2023-04-27T21:51:20.507Z,3.70
2023-04-27T21:53:47.270Z,3.90
2023-04-27T21:57:10.435Z,3.50
2023-04-27T21:59:55.839Z,3.23
2023-04-27T22:03:18.854Z,4.00
2023-04-27T22:06:04.734Z,3.90
2023-04-27T22:08:49.916Z,3.30
2023-04-27T22:11:54.066Z,3.37
2023-04-27T22:14:39.632Z,3.30
2023-04-27T22:17:25.420Z,3.27
2023-04-27T22:20:48.484Z,3.17
2023-04-27T22:23:15.844Z,3.50
2023-04-27T22:25:43.128Z,3.50
2023-04-27T22:28:10.781Z,3.63
2023-04-27T22:30:38.782Z,3.20
2023-04-27T22:33:06.344Z,3.63
2023-04-27T22:35:33.904Z,3.33
2023-04-27T22:38:01.047Z,3.53
2023-04-27T22:40:28.405Z,3.13
2023-04-27T22:42:55.912Z,3.73
2023-04-27T22:45:23.450Z,3.27
2023-04-27T22:50:19.061Z,3.50
2023-04-27T22:52:46.027Z,3.47
2023-04-27T22:55:13.134Z,3.73
2023-04-27T22:57:40.946Z,3.93
2023-04-27T23:00:12.058Z,3.60
2023-04-27T23:02:40.345Z,3.93
2023-04-27T23:05:07.837Z,3.80
2023-04-27T23:07:35.994Z,3.60
2023-04-27T23:10:03.140Z,4.20
2023-04-27T23:12:30.758Z,3.40
2023-04-27T23:14:58.101Z,4.03
2023-04-27T23:17:30.476Z,3.40
2023-04-27T23:20:01.581Z,3.37
2023-04-27T23:22:29.334Z,3.40
2023-04-27T23:24:56.261Z,3.30
2023-04-27T23:27:24.760Z,3.27
2023-04-27T23:29:52.550Z,3.97
2023-04-27T23:32:19.445Z,3.50
2023-04-27T23:34:46.600Z,3.40
2023-04-27T23:37:13.403Z,3.80
2023-04-27T23:39:40.538Z,3.87
2023-04-27T23:42:07.179Z,3.67
2023-04-27T23:44:34.260Z,3.70
2023-04-27T23:47:01.044Z,3.50
2023-04-27T23:49:27.717Z,3.47
2023-04-27T23:51:54.497Z,3.70
2023-04-27T23:54:21.629Z,3.37
2023-04-27T23:56:50.423Z,4.90
2023-04-27T23:59:17.651Z,3.23
